Terminal Aerodrome Forecast
Issued by NWS Charleston, WV

Current Version | Previous Version | Text Only | Print | Product List | Glossary Off
Versions: 1 2 3 4 5 6 7 8 9 10 11 12 13 14 15 16 17 18 19 20 21 22 23 24 25

000
FTUS41 KRLX 240800 AAA
TAFBKW
TAF AMD
KBKW 240831Z 2409/2506 31006KT P6SM SKC
     FM250300 00000KT P6SM SCT130=

USA.gov is the U.S. government's official web portal to all federal, state and local government web resources and services.